Time;durP1;ratioP1;P1;durP2;ratioP2;P2;SDS_P1;SDS_P2;PMS_P1;PMS_P2;Temp;Humidity;BMP_temperature;BMP_pressure;BME280_temperature;BME280_humidity;BME280_pressure;Samples;Min_cycle;Max_cycle;Signal;HPM_P1;HPM_P2
2024/03/05 00:01:41;;;;;;;10.10;2.47;;;24.10;49.70;;;;;;5045917;28;20179;-72
2024/03/05 00:04:08;;;;;;;10.50;2.47;;;24.10;49.80;;;;;;5051675;28;20188;-75
2024/03/05 00:06:37;;;;;;;8.40;2.60;;;24.10;50.00;;;;;;5033074;28;20188;-75
2024/03/05 00:09:05;;;;;;;5.40;2.10;;;24.00;50.10;;;;;;5052473;28;20171;-73
2024/03/05 00:11:32;;;;;;;10.10;2.37;;;24.20;49.80;;;;;;5049684;28;20188;-75
2024/03/05 00:14:00;;;;;;;8.07;2.30;;;24.30;49.50;;;;;;5050508;28;20216;-76
2024/03/05 00:16:28;;;;;;;8.10;2.20;;;24.30;49.90;;;;;;5049459;28;20618;-74
2024/03/05 00:18:55;;;;;;;8.40;2.07;;;24.60;49.30;;;;;;5033726;28;20198;-74
2024/03/05 00:21:22;;;;;;;11.57;2.33;;;24.60;49.20;;;;;;5045573;28;20508;-73
2024/03/05 00:23:50;;;;;;;11.90;2.43;;;24.60;49.00;;;;;;5052599;28;20176;-74
2024/03/05 00:26:18;;;;;;;9.87;2.40;;;24.50;48.90;;;;;;5048964;28;20234;-74
2024/03/05 00:28:46;;;;;;;10.83;2.80;;;24.60;48.90;;;;;;5049013;28;20272;-72
2024/03/05 00:31:14;;;;;;;10.47;2.87;;;24.80;48.80;;;;;;5032269;28;20231;-72
2024/03/05 00:33:41;;;;;;;9.10;2.50;;;24.80;48.60;;;;;;5051211;28;20219;-73
2024/03/05 00:36:10;;;;;;;9.03;2.27;;;24.60;50.10;;;;;;5051051;28;20581;-74
2024/03/05 00:38:37;;;;;;;10.47;2.90;;;24.70;49.50;;;;;;5032756;28;20219;-74
2024/03/05 00:41:08;;;;;;;11.27;2.10;;;24.90;48.60;;;;;;5046785;28;20203;-72
2024/03/05 00:43:35;;;;;;;10.67;2.50;;;24.80;49.10;;;;;;5048176;28;20238;-73
2024/03/05 00:46:02;;;;;;;8.93;2.40;;;24.80;49.80;;;;;;5048943;28;20557;-73
2024/03/05 00:48:30;;;;;;;7.60;2.10;;;25.00;49.20;;;;;;5047492;28;20191;-74
2024/03/05 00:50:58;;;;;;;9.20;2.13;;;25.10;48.50;;;;;;5009133;28;20192;-74
2024/03/05 00:53:28;;;;;;;12.17;2.90;;;25.20;49.00;;;;;;5050605;28;20203;-73
2024/03/05 00:55:57;;;;;;;10.13;2.30;;;25.20;48.30;;;;;;5049075;28;20187;-73
2024/03/05 00:58:24;;;;;;;14.03;2.83;;;25.30;48.80;;;;;;5046490;28;20561;-74
2024/03/05 01:00:51;;;;;;;11.50;2.77;;;25.30;48.20;;;;;;5049690;28;20202;-74
2024/03/05 01:03:20;;;;;;;11.93;2.47;;;25.10;49.80;;;;;;5048700;28;20187;-77
2024/03/05 01:05:47;;;;;;;10.03;3.00;;;25.40;49.00;;;;;;5046748;28;20642;-74
2024/03/05 01:08:15;;;;;;;10.33;2.30;;;25.70;47.70;;;;;;5045458;28;20560;-72
2024/03/05 01:10:45;;;;;;;9.80;2.53;;;25.60;47.80;;;;;;5047836;28;20215;-76
2024/03/05 01:13:13;;;;;;;13.53;2.60;;;25.80;47.70;;;;;;5047531;28;20180;-78
2024/03/05 01:15:41;;;;;;;13.43;2.70;;;25.80;47.70;;;;;;5049917;28;20770;-73
2024/03/05 01:18:09;;;;;;;9.30;2.80;;;25.70;47.00;;;;;;5051634;28;20172;-72
2024/03/05 01:20:39;;;;;;;10.03;2.50;;;25.80;47.50;;;;;;5045334;28;20191;-75
2024/03/05 01:23:07;;;;;;;7.77;2.50;;;25.70;47.40;;;;;;5043853;28;20576;-74
2024/03/05 01:25:35;;;;;;;14.07;2.60;;;25.80;47.50;;;;;;5044141;28;20188;-73
2024/03/05 01:28:03;;;;;;;12.37;2.43;;;26.20;47.00;;;;;;5047099;28;20183;-73
2024/03/05 01:30:30;;;;;;;10.63;2.80;;;26.30;47.20;;;;;;5048454;28;20195;-72
2024/03/05 01:32:58;;;;;;;9.13;2.47;;;26.40;46.20;;;;;;5049427;28;20550;-73
2024/03/05 01:35:26;;;;;;;7.03;2.20;;;26.60;46.00;;;;;;5049132;28;20685;-75
2024/03/05 01:37:53;;;;;;;9.57;2.13;;;26.30;46.60;;;;;;5033258;28;20631;-74
2024/03/05 01:40:20;;;;;;;12.23;2.43;;;26.30;46.50;;;;;;5048187;28;20183;-74
2024/03/05 01:42:48;;;;;;;8.10;2.40;;;26.60;45.80;;;;;;5028849;28;20195;-73
2024/03/05 01:45:19;;;;;;;12.23;3.13;;;26.40;46.80;;;;;;5030427;28;20200;-73
2024/03/05 01:47:48;;;;;;;7.30;2.20;;;26.70;46.50;;;;;;5043633;28;20199;-69
2024/03/05 01:50:16;;;;;;;10.43;2.50;;;26.40;47.60;;;;;;5045362;28;20191;-74
2024/03/05 01:52:44;;;;;;;15.47;3.23;;;26.30;47.30;;;;;;5047360;28;20222;-71
2024/03/05 01:55:14;;;;;;;13.13;3.13;;;26.50;47.70;;;;;;5045874;28;20756;-74
2024/03/05 01:57:44;;;;;;;9.97;2.50;;;26.30;47.90;;;;;;5049528;28;20187;-72
2024/03/05 02:00:15;;;;;;;14.57;2.80;;;26.20;47.90;;;;;;5048352;28;20187;-73
2024/03/05 02:02:45;;;;;;;12.10;2.87;;;26.30;47.40;;;;;;5027884;28;20730;-73
2024/03/05 02:05:13;;;;;;;13.17;3.33;;;25.70;49.30;;;;;;5046219;28;20264;-76
2024/03/05 02:07:42;;;;;;;10.13;2.47;;;26.20;48.50;;;;;;5047538;28;20230;-73
2024/03/05 02:10:10;;;;;;;14.93;3.00;;;26.30;48.10;;;;;;5041275;28;20195;-73
2024/03/05 02:12:40;;;;;;;11.10;2.90;;;26.40;48.00;;;;;;5042345;28;20200;-72
2024/03/05 02:15:14;;;;;;;13.43;2.40;;;26.60;47.70;;;;;;5041506;28;20223;-72
2024/03/05 02:17:48;;;;;;;12.07;2.87;;;26.90;47.10;;;;;;5040169;28;20494;-73
2024/03/05 02:20:15;;;;;;;10.27;2.50;;;26.60;46.90;;;;;;5043457;28;20180;-75
2024/03/05 02:22:46;;;;;;;16.57;2.60;;;26.50;47.70;;;;;;5042918;28;20209;-70
2024/03/05 02:25:14;;;;;;;11.57;2.43;;;26.30;48.00;;;;;;5044167;28;20286;-71
2024/03/05 02:27:41;;;;;;;13.97;2.57;;;26.70;47.30;;;;;;5047406;28;20203;-71
2024/03/05 02:30:12;;;;;;;7.37;2.17;;;26.30;47.30;;;;;;5037520;28;20627;-69
2024/03/05 02:32:43;;;;;;;12.23;2.30;;;26.40;47.80;;;;;;5046292;28;20591;-73
2024/03/05 02:35:11;;;;;;;8.80;2.40;;;26.70;48.10;;;;;;5040146;28;20232;-75
2024/03/05 02:37:39;;;;;;;8.63;2.60;;;27.20;47.50;;;;;;5046608;28;20187;-72
2024/03/05 02:40:14;;;;;;;7.33;2.10;;;26.90;46.90;;;;;;5039264;28;20200;-76
2024/03/05 02:42:42;;;;;;;10.13;2.33;;;26.80;46.70;;;;;;5042099;28;20841;-75
2024/03/05 02:45:15;;;;;;;8.47;2.47;;;26.70;47.40;;;;;;5038782;28;20212;-74
2024/03/05 02:47:42;;;;;;;11.27;2.80;;;26.80;46.70;;;;;;5044463;28;20184;-73
2024/03/05 02:50:14;;;;;;;6.53;2.10;;;27.10;46.40;;;;;;5044441;28;20180;-72
2024/03/05 02:52:44;;;;;;;10.33;2.60;;;26.90;46.00;;;;;;5045842;28;20180;-73
2024/03/05 02:55:15;;;;;;;7.53;2.33;;;26.70;47.10;;;;;;5046450;28;20639;-73
2024/03/05 02:57:44;;;;;;;8.93;2.20;;;27.30;46.50;;;;;;5040780;28;20175;-73
2024/03/05 03:00:24;;;;;;;12.00;2.40;;;27.40;45.70;;;;;;5045164;28;20191;-76
2024/03/05 03:02:51;;;;;;;7.53;2.53;;;26.90;47.00;;;;;;5028463;28;20177;-73
2024/03/05 03:05:22;;;;;;;6.47;2.47;;;27.10;46.90;;;;;;5046365;28;20180;-72
2024/03/05 03:07:53;;;;;;;8.63;2.20;;;27.30;46.20;;;;;;5042951;28;20185;-74
2024/03/05 03:10:20;;;;;;;13.73;2.43;;;26.90;46.90;;;;;;5042621;28;20233;-75
2024/03/05 03:12:49;;;;;;;11.17;2.30;;;27.30;47.10;;;;;;5048728;28;20184;-73
2024/03/05 03:15:20;;;;;;;10.53;2.20;;;27.80;46.40;;;;;;5043410;28;20224;-72
2024/03/05 03:17:47;;;;;;;8.90;2.13;;;28.40;45.50;;;;;;5042430;28;20196;-75
2024/03/05 03:20:16;;;;;;;9.13;2.27;;;28.30;45.20;;;;;;5046776;28;20599;-74
2024/03/05 03:22:44;;;;;;;10.00;2.47;;;27.00;46.80;;;;;;5047190;28;20198;-71
2024/03/05 03:25:13;;;;;;;10.57;2.40;;;27.10;46.90;;;;;;5048779;28;20195;-74
2024/03/05 03:27:41;;;;;;;7.03;2.27;;;27.20;47.10;;;;;;5047874;28;20508;-76
2024/03/05 03:30:14;;;;;;;8.53;2.37;;;27.50;47.30;;;;;;5040944;28;20650;-71
2024/03/05 03:32:41;;;;;;;7.77;2.43;;;26.90;48.10;;;;;;5047117;28;20199;-73
2024/03/05 03:35:09;;;;;;;7.73;1.90;;;27.10;47.40;;;;;;5051917;28;20207;-70
2024/03/05 03:37:36;;;;;;;6.20;1.83;;;27.30;46.70;;;;;;5033666;28;20665;-72
2024/03/05 03:40:07;;;;;;;10.80;1.90;;;27.00;47.60;;;;;;5048415;28;20195;-70
2024/03/05 03:42:35;;;;;;;9.03;1.90;;;26.90;48.00;;;;;;5052034;28;20604;-73
2024/03/05 03:45:02;;;;;;;5.63;2.00;;;27.30;47.40;;;;;;5051176;28;20346;-70
2024/03/05 03:47:29;;;;;;;9.70;2.47;;;27.60;46.50;;;;;;5052723;28;20542;-72
2024/03/05 03:49:57;;;;;;;9.63;2.50;;;27.90;46.80;;;;;;5032952;28;20846;-70
2024/03/05 03:52:25;;;;;;;7.03;2.40;;;27.70;46.60;;;;;;5051911;28;20375;-73
2024/03/05 03:54:52;;;;;;;12.83;2.53;;;28.00;46.00;;;;;;5050344;28;20253;-72
2024/03/05 03:57:20;;;;;;;8.83;1.97;;;27.40;47.20;;;;;;5051361;28;20187;-71
2024/03/05 03:59:47;;;;;;;8.40;1.80;;;27.70;46.50;;;;;;5049456;28;20204;-72
2024/03/05 04:02:14;;;;;;;5.50;2.03;;;27.70;46.60;;;;;;5050778;28;20207;-73
2024/03/05 04:04:47;;;;;;;7.90;2.40;;;27.90;45.70;;;;;;5050148;28;20188;-72
2024/03/05 04:07:18;;;;;;;7.77;2.20;;;28.40;45.30;;;;;;5051761;28;20187;-73
2024/03/05 04:09:46;;;;;;;7.73;1.93;;;28.70;44.50;;;;;;5032730;28;20196;-78
2024/03/05 04:12:15;;;;;;;8.00;2.50;;;28.80;44.10;;;;;;5051806;28;20184;-71
2024/03/05 04:14:42;;;;;;;9.60;1.83;;;28.80;43.60;;;;;;5046003;28;20220;-74
2024/03/05 04:17:14;;;;;;;9.35;2.40;;;28.70;44.20;;;;;;5049505;28;20267;-71
2024/03/05 04:19:42;;;;;;;13.93;2.53;;;28.80;43.60;;;;;;5038928;28;20192;-74
2024/03/05 04:22:09;;;;;;;6.93;2.30;;;28.70;44.50;;;;;;5047538;28;20215;-74
2024/03/05 04:24:37;;;;;;;12.45;2.70;;;29.00;43.80;;;;;;5048574;28;20766;-73
2024/03/05 04:27:06;;;;;;;7.00;1.97;;;28.40;44.80;;;;;;5049215;28;20168;-75
2024/03/05 04:29:33;;;;;;;8.02;1.88;;;28.40;44.80;;;;;;5046515;28;20179;-76
2024/03/05 04:32:08;;;;;;;9.93;2.17;;;28.60;44.50;;;;;;5049249;28;20301;-74
2024/03/05 04:34:39;;;;;;;10.03;2.27;;;28.60;45.10;;;;;;5045663;28;20682;-75
2024/03/05 04:37:12;;;;;;;12.18;2.42;;;29.10;43.20;;;;;;5048714;28;20172;-74
2024/03/05 04:39:42;;;;;;;7.15;1.98;;;28.80;44.30;;;;;;5049693;28;21251;-70
2024/03/05 04:42:11;;;;;;;14.37;2.60;;;27.80;45.60;;;;;;5050789;28;20176;-71
2024/03/05 04:44:45;;;;;;;7.25;1.85;;;27.90;45.70;;;;;;5045536;28;21049;-73
2024/03/05 04:47:12;;;;;;;6.25;2.13;;;28.20;45.70;;;;;;5049544;28;20186;-72
2024/03/05 04:49:40;;;;;;;7.10;2.22;;;28.90;43.80;;;;;;5048964;28;20194;-72
2024/03/05 04:52:09;;;;;;;7.85;2.55;;;28.60;44.70;;;;;;5051322;28;20183;-69
2024/03/05 04:54:37;;;;;;;9.98;2.58;;;28.70;44.40;;;;;;5046906;28;20302;-73
2024/03/05 04:57:05;;;;;;;9.32;2.30;;;28.40;44.50;;;;;;5045466;28;20180;-72
2024/03/05 04:59:33;;;;;;;8.15;2.22;;;28.60;44.80;;;;;;5046081;28;20513;-74
2024/03/05 05:02:05;;;;;;;8.77;2.30;;;28.80;44.60;;;;;;5046826;28;20223;-72
2024/03/05 05:04:37;;;;;;;8.70;2.20;;;29.20;43.60;;;;;;5047612;28;20545;-75
2024/03/05 05:07:07;;;;;;;8.47;2.13;;;28.30;45.50;;;;;;5050933;28;20242;-77
2024/03/05 05:09:40;;;;;;;6.82;1.92;;;28.40;45.70;;;;;;5047414;28;20680;-77
2024/03/05 05:12:11;;;;;;;6.03;2.00;;;29.30;43.80;;;;;;5050982;28;20561;-78
2024/03/05 05:14:39;;;;;;;9.85;2.45;;;29.00;43.80;;;;;;5044516;28;20458;-75
2024/03/05 05:17:06;;;;;;;8.85;1.73;;;28.90;44.10;;;;;;5046290;28;20254;-76
2024/03/05 05:19:33;;;;;;;10.05;1.90;;;29.60;43.10;;;;;;5047272;28;20234;-76
2024/03/05 05:22:01;;;;;;;5.68;2.03;;;30.20;42.20;;;;;;5046811;28;20187;-82
2024/03/05 05:24:31;;;;;;;6.75;2.10;;;30.40;41.60;;;;;;5047349;28;20237;-75
2024/03/05 05:26:58;;;;;;;9.70;2.95;;;29.30;43.60;;;;;;5046739;28;20180;-73
2024/03/05 05:29:25;;;;;;;8.90;2.42;;;29.50;42.90;;;;;;5044951;28;20212;-79
2024/03/05 05:31:53;;;;;;;5.90;1.83;;;29.70;42.60;;;;;;5044663;28;20773;-79
2024/03/05 05:34:20;;;;;;;7.93;2.30;;;28.90;44.80;;;;;;5029069;28;20226;-77
2024/03/05 05:36:47;;;;;;;12.52;2.53;;;28.80;44.80;;;;;;5043896;28;20194;-79
2024/03/05 05:39:17;;;;;;;9.23;1.77;;;28.90;44.40;;;;;;5045963;28;20176;-73
2024/03/05 05:41:46;;;;;;;11.02;2.10;;;29.50;43.50;;;;;;5049042;28;20179;-74
2024/03/05 05:44:15;;;;;;;8.63;2.75;;;29.30;43.60;;;;;;5047123;28;20188;-74
2024/03/05 05:46:42;;;;;;;11.00;2.75;;;28.70;45.00;;;;;;5030494;28;20176;-78
2024/03/05 05:49:19;;;;;;;10.90;2.50;;;28.90;44.50;;;;;;5046129;28;20662;-75
2024/03/05 05:51:51;;;;;;;6.15;2.00;;;29.50;43.30;;;;;;5044946;28;20182;-75
2024/03/05 05:54:18;;;;;;;7.82;2.45;;;30.10;42.20;;;;;;5043548;28;20195;-70
2024/03/05 05:56:48;;;;;;;6.95;1.73;;;29.30;43.80;;;;;;5047030;28;20187;-71
2024/03/05 05:59:18;;;;;;;9.23;2.10;;;29.00;44.20;;;;;;5048063;28;20180;-73
2024/03/05 06:01:46;;;;;;;9.10;2.58;;;28.90;45.00;;;;;;5048547;28;20172;-75
2024/03/05 06:04:15;;;;;;;10.23;2.33;;;29.10;44.50;;;;;;5050426;28;20646;-71
2024/03/05 06:06:43;;;;;;;6.53;2.33;;;29.30;44.00;;;;;;5049869;28;20180;-75
2024/03/05 06:09:11;;;;;;;8.23;2.55;;;28.80;44.70;;;;;;5046597;28;20176;-72
2024/03/05 06:11:39;;;;;;;10.65;2.30;;;29.10;44.30;;;;;;5049750;28;20183;-72
2024/03/05 06:14:07;;;;;;;7.27;2.30;;;28.70;45.10;;;;;;5048506;28;20226;-75
2024/03/05 06:16:34;;;;;;;9.75;2.47;;;28.30;45.70;;;;;;5049118;28;20180;-71
2024/03/05 06:19:07;;;;;;;13.33;2.43;;;29.00;45.00;;;;;;5046867;28;20215;-72
2024/03/05 06:21:34;;;;;;;8.05;2.03;;;29.30;44.60;;;;;;5048884;28;20235;-72
2024/03/05 06:24:02;;;;;;;10.67;2.20;;;29.00;44.30;;;;;;5049525;28;20695;-77
2024/03/05 06:26:34;;;;;;;7.38;1.70;;;29.20;44.50;;;;;;5043565;28;20211;-70
2024/03/05 06:29:06;;;;;;;7.73;2.10;;;29.00;44.20;;;;;;5041659;28;20185;-78
2024/03/05 06:31:37;;;;;;;7.50;2.40;;;28.70;45.70;;;;;;5047302;28;20552;-72
2024/03/05 06:34:10;;;;;;;9.90;2.42;;;28.70;45.40;;;;;;5044731;28;20203;-73
2024/03/05 06:36:38;;;;;;;6.70;2.40;;;28.70;45.90;;;;;;5045016;28;20188;-72
2024/03/05 06:39:18;;;;;;;8.40;2.05;;;28.30;45.90;;;;;;5048873;28;20487;-76
2024/03/05 06:41:52;;;;;;;10.73;2.40;;;29.00;45.10;;;;;;5048316;28;20184;-73
2024/03/05 06:44:25;;;;;;;8.90;2.20;;;28.30;46.60;;;;;;5042297;28;20279;-73
2024/03/05 06:46:56;;;;;;;7.80;2.17;;;28.60;46.10;;;;;;5045316;28;20183;-71
2024/03/05 06:49:37;;;;;;;9.65;2.33;;;28.70;45.80;;;;;;5045063;28;20215;-72
2024/03/05 06:57:39;;;;;;;15.77;2.83;;;28.80;45.40;;;;;;5047402;28;20268;-70
2024/03/05 07:00:15;;;;;;;6.82;2.15;;;28.80;45.30;;;;;;5045478;28;20191;-73
2024/03/05 07:02:46;;;;;;;10.63;2.47;;;28.40;46.30;;;;;;5039257;28;20192;-72
2024/03/05 07:05:14;;;;;;;6.23;2.53;;;27.90;47.30;;;;;;5045210;28;20191;-72
2024/03/05 07:07:41;;;;;;;9.27;2.13;;;27.80;47.80;;;;;;5047853;28;20192;-73
2024/03/05 07:10:13;;;;;;;11.50;2.47;;;28.00;46.90;;;;;;5045661;28;20295;-72
2024/03/05 07:12:44;;;;;;;8.90;2.10;;;28.40;45.80;;;;;;5046281;28;20334;-72
2024/03/05 07:15:14;;;;;;;10.40;2.77;;;28.60;45.50;;;;;;5045209;28;20310;-75
2024/03/05 07:17:45;;;;;;;9.50;2.10;;;28.30;45.90;;;;;;5044787;28;20259;-76
2024/03/05 07:20:22;;;;;;;5.97;2.53;;;28.60;45.50;;;;;;5047836;28;20180;-69
2024/03/05 07:22:54;;;;;;;10.43;2.50;;;27.90;46.30;;;;;;5045872;28;20182;-71
2024/03/05 07:25:22;;;;;;;8.57;1.93;;;28.00;46.70;;;;;;5030604;28;20191;-73
2024/03/05 07:27:51;;;;;;;8.50;3.30;;;28.40;45.40;;;;;;5049970;28;20184;-71
2024/03/05 07:30:21;;;;;;;11.23;2.40;;;28.10;46.40;;;;;;5026725;28;20207;-73
2024/03/05 07:32:49;;;;;;;10.47;2.40;;;27.80;46.80;;;;;;5043435;28;20180;-72
2024/03/05 07:35:18;;;;;;;10.67;2.03;;;27.70;47.60;;;;;;5045377;28;20269;-74
2024/03/05 07:37:48;;;;;;;11.17;2.67;;;27.10;49.00;;;;;;5049535;28;20229;-72
2024/03/05 07:40:22;;;;;;;11.83;2.60;;;27.10;49.30;;;;;;5023780;28;20647;-72
2024/03/05 07:42:54;;;;;;;7.50;2.30;;;27.30;48.90;;;;;;5047961;28;20190;-72
2024/03/05 07:45:23;;;;;;;9.83;2.70;;;27.00;49.80;;;;;;5045323;28;20231;-72
2024/03/05 07:47:51;;;;;;;9.70;2.33;;;26.80;49.90;;;;;;5043047;28;20233;-72
2024/03/05 07:50:19;;;;;;;9.17;1.90;;;26.70;50.30;;;;;;5044678;28;20164;-72
2024/03/05 07:52:47;;;;;;;9.07;2.27;;;26.00;51.90;;;;;;5041276;28;20186;-68
2024/03/05 07:55:18;;;;;;;8.33;2.17;;;25.30;53.80;;;;;;5048072;28;20643;-72
2024/03/05 07:57:49;;;;;;;9.07;2.30;;;24.80;55.90;;;;;;5044610;28;20183;-71
2024/03/05 08:00:20;;;;;;;7.87;2.37;;;24.40;57.20;;;;;;5048438;28;20195;-72
2024/03/05 08:02:48;;;;;;;9.00;2.23;;;24.20;58.00;;;;;;5049681;28;20184;-71
2024/03/05 08:05:21;;;;;;;6.13;1.90;;;24.00;58.70;;;;;;5045978;28;20184;-71
2024/03/05 08:07:56;;;;;;;9.63;2.23;;;23.80;59.60;;;;;;5041202;28;20180;-68
2024/03/05 08:10:24;;;;;;;8.53;2.00;;;23.70;59.90;;;;;;5042848;28;20193;-72
2024/03/05 08:12:56;;;;;;;8.67;2.10;;;23.70;60.20;;;;;;5048288;28;20285;-75
2024/03/05 08:15:26;;;;;;;9.67;2.20;;;23.60;60.50;;;;;;5046125;28;20302;-73
2024/03/05 08:17:56;;;;;;;8.70;2.30;;;23.50;60.70;;;;;;5029111;28;20402;-73
2024/03/05 08:20:26;;;;;;;8.93;2.43;;;23.40;60.90;;;;;;5050274;28;20282;-72
2024/03/05 08:22:56;;;;;;;7.33;2.40;;;23.40;61.20;;;;;;5035177;28;20267;-73
2024/03/05 08:25:24;;;;;;;13.37;2.77;;;23.40;61.60;;;;;;5046175;28;20184;-72
2024/03/05 08:27:58;;;;;;;8.43;2.27;;;23.40;61.80;;;;;;5049640;28;20176;-69
2024/03/05 08:30:31;;;;;;;8.10;1.90;;;23.30;62.10;;;;;;5048790;28;20206;-72
2024/03/05 08:33:03;;;;;;;10.17;2.60;;;23.30;62.30;;;;;;5048576;28;20190;-71
2024/03/05 08:35:31;;;;;;;13.10;2.63;;;23.20;62.60;;;;;;5045828;28;20657;-71
2024/03/05 08:38:01;;;;;;;12.03;2.17;;;23.20;62.80;;;;;;5049369;28;20226;-72
2024/03/05 08:40:32;;;;;;;9.23;2.23;;;23.20;63.00;;;;;;5047371;28;20180;-73
2024/03/05 08:43:02;;;;;;;8.63;2.23;;;23.20;63.10;;;;;;5048415;28;20184;-70
2024/03/05 08:45:33;;;;;;;14.10;3.50;;;23.10;63.40;;;;;;5044559;28;20179;-72
2024/03/05 08:48:00;;;;;;;4.33;2.07;;;23.10;63.60;;;;;;5036575;28;20580;-72
2024/03/05 08:50:29;;;;;;;9.77;2.40;;;23.10;63.80;;;;;;5046581;28;20180;-73
2024/03/05 08:53:00;;;;;;;8.70;2.10;;;23.00;63.90;;;;;;5046552;28;20305;-72
2024/03/05 08:55:28;;;;;;;7.57;1.93;;;23.00;64.30;;;;;;5046865;28;20246;-76
2024/03/05 08:57:55;;;;;;;9.53;2.27;;;23.00;64.30;;;;;;5048835;28;20259;-75
2024/03/05 09:00:25;;;;;;;9.53;2.33;;;22.90;64.50;;;;;;5045207;28;20244;-74
2024/03/05 09:02:52;;;;;;;11.47;2.60;;;22.90;64.70;;;;;;5039755;28;20196;-73
2024/03/05 09:05:19;;;;;;;12.57;2.83;;;22.90;64.90;;;;;;5048034;28;20556;-73
2024/03/05 09:07:49;;;;;;;10.80;2.43;;;22.90;65.20;;;;;;5048366;28;20234;-75
2024/03/05 09:10:17;;;;;;;10.23;2.07;;;22.80;65.30;;;;;;5043346;28;20200;-76
2024/03/05 09:12:46;;;;;;;10.43;2.17;;;22.80;65.70;;;;;;5046281;28;20196;-73
2024/03/05 09:15:15;;;;;;;11.87;2.70;;;22.80;66.20;;;;;;5046070;28;20219;-73
2024/03/05 09:17:43;;;;;;;10.63;2.20;;;22.80;66.20;;;;;;5043291;28;20541;-73
2024/03/05 09:20:17;;;;;;;10.90;2.40;;;22.80;66.30;;;;;;5043438;28;20198;-75
2024/03/05 09:22:45;;;;;;;10.70;2.53;;;22.80;66.40;;;;;;5042662;28;20635;-71
2024/03/05 09:25:13;;;;;;;11.37;3.07;;;22.80;66.80;;;;;;5040706;28;20199;-75
2024/03/05 09:27:42;;;;;;;13.50;2.40;;;22.80;66.80;;;;;;5044398;28;20282;-72
2024/03/05 09:30:12;;;;;;;6.90;2.03;;;22.80;66.90;;;;;;5044895;28;20173;-75
2024/03/05 09:32:42;;;;;;;10.13;2.13;;;22.80;66.70;;;;;;5047138;28;20298;-75
2024/03/05 09:35:09;;;;;;;12.37;2.50;;;22.80;66.90;;;;;;5047261;28;20209;-71
2024/03/05 09:37:37;;;;;;;8.93;2.47;;;22.80;67.20;;;;;;5050860;28;20189;-77
2024/03/05 09:40:16;;;;;;;11.03;2.23;;;22.70;67.40;;;;;;5046383;28;20200;-73
2024/03/05 09:42:44;;;;;;;12.13;2.20;;;22.70;67.30;;;;;;5050135;28;20258;-75
2024/03/05 09:45:18;;;;;;;10.90;2.67;;;22.70;67.40;;;;;;5045388;28;20245;-71
2024/03/05 09:47:51;;;;;;;7.60;2.10;;;22.70;67.70;;;;;;5047913;28;20254;-72
2024/03/05 09:50:18;;;;;;;12.33;2.70;;;22.70;67.90;;;;;;5045395;28;20207;-72
2024/03/05 09:52:46;;;;;;;12.63;2.70;;;22.70;68.10;;;;;;5046648;28;20184;-74
2024/03/05 09:55:14;;;;;;;9.90;2.60;;;22.60;68.10;;;;;;5045548;28;20253;-71
2024/03/05 09:57:42;;;;;;;11.97;2.40;;;22.70;68.10;;;;;;5026936;28;20198;-73
2024/03/05 10:00:17;;;;;;;13.43;2.90;;;22.70;68.20;;;;;;5045974;28;20283;-74
2024/03/05 10:02:52;;;;;;;11.47;2.60;;;22.60;68.30;;;;;;5046313;28;20194;-71
2024/03/05 10:05:20;;;;;;;7.97;2.37;;;22.60;68.40;;;;;;5041941;28;20192;-73
2024/03/05 10:07:47;;;;;;;9.87;2.20;;;22.50;68.60;;;;;;5050293;28;20179;-76
2024/03/05 10:10:19;;;;;;;18.77;2.70;;;22.60;68.70;;;;;;5041438;28;20188;-77
2024/03/05 10:12:46;;;;;;;9.77;2.60;;;22.50;69.00;;;;;;5045980;28;20187;-75
2024/03/05 10:15:22;;;;;;;14.63;2.53;;;22.50;69.20;;;;;;5045526;28;20212;-77
2024/03/05 10:17:52;;;;;;;12.93;2.27;;;22.50;69.40;;;;;;5045479;28;20182;-74
2024/03/05 10:20:36;;;;;;;11.90;2.47;;;22.50;69.40;;;;;;5042985;28;20188;-76
2024/03/05 10:23:10;;;;;;;14.37;2.53;;;22.40;69.30;;;;;;5028259;28;20184;-78
2024/03/05 10:25:39;;;;;;;12.10;2.63;;;22.40;69.30;;;;;;5043765;28;20269;-76
2024/03/05 10:28:10;;;;;;;8.10;2.67;;;22.50;69.50;;;;;;5045723;28;20188;-75
2024/03/05 10:30:44;;;;;;;11.00;2.80;;;22.50;69.60;;;;;;5043676;28;20211;-76
2024/03/05 10:33:12;;;;;;;9.40;2.40;;;22.40;69.80;;;;;;5047221;28;20725;-76
2024/03/05 10:35:43;;;;;;;11.00;2.40;;;22.40;70.00;;;;;;5034727;28;20228;-73
2024/03/05 10:38:14;;;;;;;11.03;2.13;;;22.40;70.20;;;;;;5044625;28;20217;-73
2024/03/05 10:40:43;;;;;;;10.63;2.70;;;22.30;70.30;;;;;;5048168;28;20179;-75
2024/03/05 10:43:18;;;;;;;13.77;2.77;;;22.40;70.50;;;;;;5045480;28;20207;-76
2024/03/05 10:45:46;;;;;;;16.57;2.90;;;22.30;70.70;;;;;;5030563;28;20192;-75
2024/03/05 10:48:15;;;;;;;11.53;2.33;;;22.40;70.60;;;;;;5048636;28;20611;-73
2024/03/05 10:50:45;;;;;;;15.00;2.70;;;22.40;70.90;;;;;;5046664;28;20180;-74
2024/03/05 10:53:16;;;;;;;14.67;2.67;;;22.40;71.10;;;;;;5046043;28;20187;-72
2024/03/05 10:55:44;;;;;;;11.03;2.50;;;22.40;71.40;;;;;;5042230;28;20273;-74
2024/03/05 11:00:41;;;;;;;12.47;2.57;;;22.40;71.40;;;;;;5043378;28;20295;-74
2024/03/05 11:03:16;;;;;;;13.83;2.50;;;22.40;71.70;;;;;;5042627;28;20176;-75
2024/03/05 11:05:53;;;;;;;11.30;2.43;;;22.40;72.10;;;;;;5025313;28;20548;-74
2024/03/05 11:08:25;;;;;;;11.47;2.23;;;22.30;72.30;;;;;;5048037;28;20218;-75
2024/03/05 11:11:03;;;;;;;8.60;2.23;;;22.30;72.30;;;;;;5041015;28;20193;-75
2024/03/05 11:13:32;;;;;;;12.97;2.17;;;22.30;72.20;;;;;;5045720;28;20192;-75
2024/03/05 11:16:03;;;;;;;11.67;2.60;;;22.40;72.40;;;;;;5046454;28;20212;-76
2024/03/05 11:18:33;;;;;;;11.93;2.60;;;22.30;72.50;;;;;;5044437;28;20188;-74
2024/03/05 11:21:11;;;;;;;7.87;2.43;;;22.40;72.80;;;;;;5041331;28;20187;-74
2024/03/05 11:23:52;;;;;;;16.93;2.57;;;22.30;72.90;;;;;;5046712;28;20174;-74
2024/03/05 11:26:31;;;;;;;18.20;2.87;;;22.30;73.20;;;;;;5044962;28;20263;-73
2024/03/05 11:29:30;;;;;;;14.67;2.63;;;22.30;73.40;;;;;;5048602;28;20186;-73
2024/03/05 11:32:03;;;;;;;7.33;1.87;;;22.30;73.50;;;;;;5043247;28;20220;-77
2024/03/05 11:34:31;;;;;;;9.67;2.40;;;22.30;73.60;;;;;;5048631;28;20200;-75
2024/03/05 11:37:08;;;;;;;11.33;2.53;;;22.30;73.90;;;;;;5044688;28;20257;-76
2024/03/05 11:39:47;;;;;;;13.40;2.50;;;22.30;74.00;;;;;;5044786;28;20195;-73
2024/03/05 11:42:20;;;;;;;7.30;2.20;;;22.30;74.20;;;;;;5047369;28;20587;-73
2024/03/05 11:44:49;;;;;;;11.13;2.40;;;22.30;74.30;;;;;;5026978;28;20192;-74
2024/03/05 11:47:21;;;;;;;13.57;2.23;;;22.30;74.40;;;;;;5041447;28;20178;-73
2024/03/05 11:49:49;;;;;;;13.73;2.67;;;22.30;74.60;;;;;;5042590;28;20199;-71
2024/03/05 11:52:22;;;;;;;12.27;2.60;;;22.30;74.70;;;;;;5045055;28;20564;-73
2024/03/05 11:55:05;;;;;;;10.27;2.00;;;22.20;74.90;;;;;;5041890;28;20685;-72
2024/03/05 11:57:33;;;;;;;8.27;2.20;;;22.20;74.80;;;;;;5045368;28;20656;-72
2024/03/05 12:00:01;;;;;;;10.77;2.60;;;22.20;74.60;;;;;;5049413;28;20206;-72
2024/03/05 12:02:28;;;;;;;11.17;2.67;;;22.20;74.70;;;;;;5046341;28;20192;-73
2024/03/05 12:05:04;;;;;;;14.17;2.77;;;22.20;74.60;;;;;;5049136;28;20175;-73
2024/03/05 12:07:33;;;;;;;15.10;2.57;;;22.20;74.40;;;;;;5041330;28;20267;-72
2024/03/05 12:10:00;;;;;;;7.50;2.27;;;22.10;74.40;;;;;;5048773;28;20176;-73
2024/03/05 12:12:28;;;;;;;12.40;2.43;;;22.20;74.30;;;;;;5047119;28;20595;-71
2024/03/05 12:14:57;;;;;;;14.33;2.90;;;22.10;74.30;;;;;;5043382;28;20232;-74
2024/03/05 12:17:25;;;;;;;11.73;2.60;;;22.10;74.30;;;;;;5043755;28;20184;-72
2024/03/05 12:20:06;;;;;;;10.30;2.70;;;22.10;74.60;;;;;;5045826;28;20272;-73
2024/03/05 12:22:36;;;;;;;9.57;2.27;;;22.10;74.70;;;;;;5049492;28;20635;-73
2024/03/05 12:25:03;;;;;;;14.90;2.70;;;22.00;74.80;;;;;;5045273;28;20191;-73
2024/03/05 12:27:34;;;;;;;12.13;2.53;;;22.00;74.90;;;;;;5046789;28;20599;-71
2024/03/05 12:30:06;;;;;;;15.47;2.23;;;22.00;75.00;;;;;;5048478;28;20637;-73
2024/03/05 12:32:36;;;;;;;11.07;2.40;;;22.00;75.10;;;;;;5049251;28;20606;-74
2024/03/05 12:35:05;;;;;;;13.97;2.33;;;22.00;75.20;;;;;;5046974;28;20287;-72
2024/03/05 12:37:34;;;;;;;13.73;2.60;;;22.00;75.40;;;;;;5047078;28;20211;-74
2024/03/05 12:40:07;;;;;;;17.07;2.53;;;21.90;75.40;;;;;;5051788;28;20183;-72
2024/03/05 12:42:34;;;;;;;13.37;2.73;;;21.90;75.50;;;;;;5044748;28;20183;-73
2024/03/05 12:45:06;;;;;;;11.57;2.37;;;21.90;75.80;;;;;;5050026;28;20180;-73
2024/03/05 12:47:35;;;;;;;9.10;2.30;;;21.90;75.90;;;;;;5042393;28;20184;-74
2024/03/05 12:50:04;;;;;;;13.70;2.13;;;21.90;76.10;;;;;;5040713;28;20177;-72
2024/03/05 12:52:34;;;;;;;15.63;2.67;;;21.90;76.30;;;;;;5046781;28;20229;-70
2024/03/05 12:55:09;;;;;;;11.40;2.80;;;21.90;76.40;;;;;;5039432;28;20212;-72
2024/03/05 12:57:38;;;;;;;11.00;2.47;;;21.90;76.40;;;;;;5047000;28;20201;-72
2024/03/05 13:00:10;;;;;;;9.33;2.27;;;21.90;76.30;;;;;;5047080;28;20190;-72
2024/03/05 13:02:38;;;;;;;11.83;2.60;;;21.90;76.50;;;;;;5048700;28;20275;-74